createdAt,value
2023-04-03T00:00:35.608Z,99714.47
2023-04-03T00:03:03.546Z,99719.22
2023-04-03T00:05:30.972Z,99714.84
2023-04-03T00:07:58.302Z,99712.53
2023-04-03T00:10:25.959Z,99707.19
2023-04-03T00:12:53.339Z,99715.66
2023-04-03T00:15:20.759Z,99717.50
2023-04-03T00:17:48.382Z,99717.16
2023-04-03T00:20:16.376Z,99709.91
2023-04-03T00:22:43.723Z,99714.06
2023-04-03T00:25:11.359Z,99717.69
2023-04-03T00:27:39.225Z,99723.97
2023-04-03T00:30:07.868Z,99745.84
2023-04-03T00:32:35.556Z,99735.00
2023-04-03T00:35:03.240Z,99733.19
2023-04-03T00:37:30.594Z,99733.41
2023-04-03T00:39:58.246Z,99732.34
2023-04-03T00:42:25.606Z,99739.91
2023-04-03T00:44:58.956Z,99731.44
2023-04-03T00:47:27.144Z,99739.78
2023-04-03T00:49:54.485Z,99732.56
2023-04-03T00:52:23.616Z,99733.47
2023-04-03T00:54:51.488Z,99743.28
2023-04-03T00:57:18.856Z,99736.34
2023-04-03T00:59:49.603Z,99736.84
2023-04-03T01:02:17.339Z,99741.09
2023-04-03T01:04:44.721Z,99757.34
2023-04-03T01:07:20.956Z,99739.41
2023-04-03T01:09:48.960Z,99742.66
2023-04-03T01:12:28.676Z,99741.75
2023-04-03T01:15:07.559Z,99743.63
2023-04-03T01:17:38.979Z,99737.22
2023-04-03T01:20:37.879Z,99746.94
2023-04-03T01:23:12.112Z,99740.25
2023-04-03T01:25:47.455Z,99749.66
2023-04-03T01:28:37.174Z,99752.84
2023-04-03T01:31:13.837Z,99747.19
2023-04-03T01:33:41.717Z,99747.59
2023-04-03T01:36:09.439Z,99747.69
2023-04-03T01:38:37.054Z,99749.69
2023-04-03T01:41:04.430Z,99755.16
2023-04-03T01:43:32.200Z,99752.53
2023-04-03T01:45:59.779Z,99753.59
2023-04-03T01:48:27.174Z,99744.56
2023-04-03T01:50:55.320Z,99756.94
2023-04-03T01:53:22.798Z,99761.69
2023-04-03T01:55:50.376Z,99749.78
2023-04-03T01:58:18.049Z,99754.09
2023-04-03T02:00:45.672Z,99760.00
2023-04-03T02:03:13.316Z,99763.91
2023-04-03T02:05:40.885Z,99754.19
2023-04-03T02:08:08.421Z,99752.84
2023-04-03T02:10:36.382Z,99757.69
2023-04-03T02:13:03.830Z,99754.38
2023-04-03T02:15:31.942Z,99759.63
2023-04-03T02:17:59.572Z,99761.16
2023-04-03T02:20:27.525Z,99765.19
2023-04-03T02:22:54.907Z,99765.59
2023-04-03T02:25:22.540Z,99759.22
2023-04-03T02:27:49.933Z,99763.22
2023-04-03T02:30:17.344Z,99758.13
2023-04-03T02:32:45.152Z,99766.53
2023-04-03T02:35:12.618Z,99765.88
2023-04-03T02:37:40.132Z,99762.00
2023-04-03T02:40:09.186Z,99759.50
2023-04-03T02:42:37.107Z,99760.88
2023-04-03T02:45:04.829Z,99771.41
2023-04-03T02:47:32.492Z,99760.03
2023-04-03T02:49:59.956Z,99753.12
2023-04-03T02:52:27.301Z,99762.16
2023-04-03T02:54:55.055Z,99760.62
2023-04-03T02:57:22.649Z,99760.88
2023-04-03T02:59:50.065Z,99762.03
2023-04-03T03:02:17.670Z,99777.28
2023-04-03T03:04:45.052Z,99770.47
2023-04-03T03:07:12.403Z,99765.75
2023-04-03T03:09:40.012Z,99774.75
2023-04-03T03:12:07.377Z,99777.41
2023-04-03T03:14:34.714Z,99778.66
2023-04-03T03:17:02.377Z,99785.16
2023-04-03T03:19:29.752Z,99776.16
2023-04-03T03:21:58.018Z,99789.88
2023-04-03T03:24:25.870Z,99783.44
2023-04-03T03:26:53.176Z,99783.44
2023-04-03T03:29:21.062Z,99784.75
2023-04-03T03:31:48.854Z,99787.03
2023-04-03T03:34:16.256Z,99781.94
2023-04-03T03:36:43.591Z,99787.72
2023-04-03T03:39:11.235Z,99783.78
2023-04-03T03:41:38.591Z,99791.84
2023-04-03T03:44:06.403Z,99788.09
2023-04-03T03:46:34.183Z,99791.03
2023-04-03T03:49:01.563Z,99782.53
2023-04-03T03:51:29.088Z,99778.94
2023-04-03T03:53:57.801Z,99798.31
2023-04-03T03:56:25.164Z,99787.81
2023-04-03T03:58:53.483Z,99778.38
2023-04-03T04:01:23.330Z,99785.59
2023-04-03T04:03:51.142Z,99794.81
2023-04-03T04:06:18.894Z,99783.78
2023-04-03T04:08:46.471Z,99788.63
2023-04-03T04:11:14.336Z,99784.19
2023-04-03T04:13:41.856Z,99778.69
2023-04-03T04:16:09.695Z,99791.91
2023-04-03T04:18:37.339Z,99787.37
2023-04-03T04:21:04.729Z,99791.84
2023-04-03T04:23:32.279Z,99784.22
2023-04-03T04:26:00.332Z,99787.13
2023-04-03T04:28:28.435Z,99787.53
2023-04-03T04:30:57.570Z,99785.28
2023-04-03T04:33:26.538Z,99788.66
2023-04-03T04:35:54.411Z,99787.00
2023-04-03T04:38:22.596Z,99799.44
2023-04-03T04:40:51.975Z,99800.03
2023-04-03T04:43:19.696Z,99807.59
2023-04-03T04:45:47.805Z,99806.00
2023-04-03T04:48:17.529Z,99796.44
2023-04-03T04:50:44.944Z,99796.28
2023-04-03T04:53:12.386Z,99805.69
2023-04-03T04:55:40.105Z,99806.84
2023-04-03T04:58:07.806Z,99803.84
2023-04-03T05:00:36.280Z,99808.06
2023-04-03T05:03:04.187Z,99817.56
2023-04-03T05:05:32.119Z,99808.59
2023-04-03T05:07:59.579Z,99814.84
2023-04-03T05:10:27.179Z,99811.37
2023-04-03T05:12:54.562Z,99816.75
2023-04-03T05:15:21.973Z,99815.03
2023-04-03T05:17:49.879Z,99813.69
2023-04-03T05:20:17.843Z,99821.62
2023-04-03T05:22:46.178Z,99814.94
2023-04-03T05:25:14.430Z,99811.69
2023-04-03T05:27:42.666Z,99815.03
2023-04-03T05:30:10.246Z,99820.22
2023-04-03T05:32:38.486Z,99815.25
2023-04-03T05:35:07.480Z,99810.56
2023-04-03T05:37:35.544Z,99822.59
2023-04-03T05:40:05.345Z,99806.25
2023-04-03T05:42:33.066Z,99815.78
2023-04-03T05:45:00.983Z,99820.06
2023-04-03T05:47:28.648Z,99819.38
2023-04-03T05:49:56.553Z,99817.22
2023-04-03T05:52:28.883Z,99815.88
2023-04-03T05:54:56.735Z,99825.56
2023-04-03T05:57:24.662Z,99822.59
2023-04-03T05:59:52.334Z,99818.06
2023-04-03T06:02:21.772Z,99822.22
2023-04-03T06:04:49.950Z,99821.53
2023-04-03T06:07:24.461Z,99826.94
2023-04-03T06:09:54.992Z,99834.19
2023-04-03T06:12:22.787Z,99830.69
2023-04-03T06:14:50.151Z,99833.63
2023-04-03T06:17:18.996Z,99831.94
2023-04-03T06:19:46.601Z,99830.97
2023-04-03T06:22:14.254Z,99827.50
2023-04-03T06:24:41.896Z,99839.03
2023-04-03T06:27:10.795Z,99837.50
2023-04-03T06:29:38.178Z,99833.06
2023-04-03T06:32:05.926Z,99829.72
2023-04-03T06:34:33.383Z,99831.25
2023-04-03T06:37:00.962Z,99837.06
2023-04-03T06:39:28.606Z,99834.09
2023-04-03T06:41:56.234Z,99839.84
2023-04-03T06:44:26.477Z,99847.63
2023-04-03T06:46:55.318Z,99848.19
2023-04-03T06:49:22.804Z,99860.38
2023-04-03T06:51:50.583Z,99843.75
2023-04-03T06:54:18.250Z,99850.66
2023-04-03T06:56:45.833Z,99848.75
2023-04-03T06:59:14.526Z,99859.22
2023-04-03T07:01:42.931Z,99855.91
2023-04-03T07:04:10.440Z,99853.63
2023-04-03T07:06:37.864Z,99863.13
2023-04-03T07:09:08.652Z,99854.03
2023-04-03T07:11:37.202Z,99853.91
2023-04-03T07:14:04.838Z,99868.69
2023-04-03T07:16:32.232Z,99860.78
2023-04-03T07:18:59.815Z,99847.94
2023-04-03T07:21:27.477Z,99845.22
2023-04-03T07:23:55.337Z,99855.34
2023-04-03T07:26:23.282Z,99847.13
2023-04-03T07:28:51.013Z,99854.16
2023-04-03T07:31:19.421Z,99841.91
2023-04-03T07:33:46.888Z,99843.88
2023-04-03T07:36:16.906Z,99842.84
2023-04-03T07:38:44.322Z,99844.25
2023-04-03T07:41:19.099Z,99851.72
2023-04-03T07:43:47.565Z,99852.03
2023-04-03T07:46:15.120Z,99867.72
2023-04-03T07:48:42.699Z,99853.22
2023-04-03T07:51:10.699Z,99856.66
2023-04-03T07:53:38.064Z,99853.47
2023-04-03T07:56:05.864Z,99855.72
2023-04-03T07:58:33.962Z,99849.94
2023-04-03T08:01:01.538Z,99859.56
2023-04-03T08:03:29.421Z,99854.44
2023-04-03T08:06:03.232Z,99855.09
2023-04-03T08:08:31.016Z,99856.41
2023-04-03T08:10:58.960Z,99859.41
2023-04-03T08:13:26.584Z,99868.69
2023-04-03T08:15:54.213Z,99859.88
2023-04-03T08:18:22.800Z,99868.84
2023-04-03T08:20:50.159Z,99869.13
2023-04-03T08:23:19.871Z,99868.88
2023-04-03T08:25:47.580Z,99878.97
2023-04-03T08:28:14.938Z,99869.81
2023-04-03T08:30:43.386Z,99878.63
2023-04-03T08:33:11.343Z,99869.34
2023-04-03T08:35:42.438Z,99879.13
2023-04-03T08:38:10.737Z,99873.34
2023-04-03T08:40:38.543Z,99872.31
2023-04-03T08:43:31.359Z,99861.03
2023-04-03T08:45:59.063Z,99872.94
2023-04-03T08:48:33.989Z,99870.84
2023-04-03T08:51:12.176Z,99861.41
2023-04-03T08:53:41.681Z,99868.59
2023-04-03T08:56:10.388Z,99865.22
2023-04-03T08:59:09.300Z,99859.47
2023-04-03T09:01:38.519Z,99865.22
2023-04-03T09:04:14.073Z,99869.72
2023-04-03T09:06:43.933Z,99867.38
2023-04-03T09:09:34.660Z,99873.19
2023-04-03T09:12:10.079Z,99866.69
2023-04-03T09:14:58.470Z,99856.34
2023-04-03T09:17:40.598Z,99866.84
2023-04-03T09:20:46.129Z,99855.41
2023-04-03T09:23:15.170Z,99862.69
2023-04-03T09:25:42.635Z,99852.97
2023-04-03T09:28:11.064Z,99861.75
2023-04-03T09:30:39.477Z,99870.63
2023-04-03T09:33:08.261Z,99871.31
2023-04-03T09:35:47.394Z,99856.13
2023-04-03T09:38:18.472Z,99857.56
2023-04-03T09:40:52.763Z,99856.44
2023-04-03T09:43:23.743Z,99865.19
2023-04-03T09:45:51.747Z,99867.50
2023-04-03T09:48:21.176Z,99869.06
2023-04-03T09:50:51.780Z,99869.28
2023-04-03T09:53:40.888Z,99869.66
2023-04-03T09:56:17.282Z,99860.50
2023-04-03T09:58:51.859Z,99849.56
2023-04-03T10:01:32.881Z,99846.06
2023-04-03T10:04:13.694Z,99841.53
2023-04-03T10:06:48.943Z,99848.81
2023-04-03T10:09:28.862Z,99843.78
2023-04-03T10:12:06.923Z,99844.16
2023-04-03T10:14:35.764Z,99838.59
2023-04-03T10:17:26.778Z,99846.63
2023-04-03T10:20:18.680Z,99845.53
2023-04-03T10:22:52.338Z,99853.06
2023-04-03T10:25:30.434Z,99859.22
2023-04-03T10:28:08.420Z,99862.84
2023-04-03T10:30:58.331Z,99854.22
2023-04-03T10:33:50.394Z,99863.28
2023-04-03T10:36:46.268Z,99857.91
2023-04-03T10:39:41.085Z,99859.41
2023-04-03T10:42:17.636Z,99855.34
2023-04-03T10:45:16.607Z,99862.13
2023-04-03T10:48:14.398Z,99855.66
2023-04-03T10:51:02.699Z,99862.25
2023-04-03T10:53:38.835Z,99854.53
2023-04-03T10:56:18.709Z,99853.41
2023-04-03T10:58:49.475Z,99857.72
2023-04-03T11:01:22.048Z,99861.69
2023-04-03T11:03:52.851Z,99862.56
2023-04-03T11:06:20.891Z,99856.72
2023-04-03T11:08:58.097Z,99862.06
2023-04-03T11:11:28.233Z,99866.00
2023-04-03T11:14:24.513Z,99860.06
2023-04-03T11:17:11.190Z,99850.13
2023-04-03T11:19:44.741Z,99857.75
2023-04-03T11:22:15.027Z,99857.25
2023-04-03T11:24:43.414Z,99857.53
2023-04-03T11:27:17.761Z,99842.81
2023-04-03T11:29:46.492Z,99841.16
2023-04-03T11:32:38.037Z,99845.03
2023-04-03T11:35:06.251Z,99834.16
2023-04-03T11:37:38.862Z,99831.50
2023-04-03T11:40:33.329Z,99822.75
2023-04-03T11:43:00.536Z,99824.66
2023-04-03T11:45:35.817Z,99823.97
2023-04-03T11:48:20.775Z,99825.72
2023-04-03T11:50:51.386Z,99822.34
2023-04-03T11:53:29.345Z,99818.00
2023-04-03T11:56:01.355Z,99818.81
2023-04-03T11:58:31.010Z,99817.69
2023-04-03T12:01:40.137Z,99823.13
2023-04-03T12:04:10.068Z,99823.72
2023-04-03T12:06:37.559Z,99827.78
2023-04-03T12:09:16.861Z,99822.88
2023-04-03T12:11:44.503Z,99821.62
2023-04-03T12:14:16.617Z,99822.00
2023-04-03T12:16:46.877Z,99817.69
2023-04-03T12:22:13.188Z,99815.03
2023-04-03T12:24:45.108Z,99809.41
2023-04-03T12:27:25.675Z,99799.56
2023-04-03T12:30:05.314Z,99809.06
2023-04-03T12:32:43.134Z,99798.28
2023-04-03T12:35:26.105Z,99802.56
2023-04-03T12:38:15.575Z,99811.75
2023-04-03T12:40:42.856Z,99800.91
2023-04-03T12:43:23.581Z,99795.09
2023-04-03T12:45:53.634Z,99803.06
2023-04-03T12:48:25.545Z,99798.66
2023-04-03T12:50:52.939Z,99800.63
2023-04-03T12:53:23.478Z,99790.66
2023-04-03T12:56:29.552Z,99807.16
2023-04-03T12:59:24.671Z,99803.31
2023-04-03T13:01:59.208Z,99801.13
2023-04-03T13:04:28.416Z,99780.87
2023-04-03T13:06:55.848Z,99783.97
2023-04-03T13:09:28.739Z,99779.16
2023-04-03T13:12:12.364Z,99770.13
2023-04-03T13:14:39.790Z,99769.94
2023-04-03T13:17:12.998Z,99769.50
2023-04-03T13:19:40.707Z,99763.78
2023-04-03T13:22:34.005Z,99766.09
2023-04-03T13:25:04.076Z,99767.41
2023-04-03T13:27:31.834Z,99762.97
2023-04-03T13:30:00.494Z,99758.13
2023-04-03T13:32:28.515Z,99763.22
2023-04-03T13:34:58.284Z,99753.56
2023-04-03T13:37:29.904Z,99760.94
2023-04-03T13:40:13.040Z,99754.12
2023-04-03T13:42:42.256Z,99763.63
2023-04-03T13:45:18.161Z,99752.00
2023-04-03T13:47:46.319Z,99752.16
2023-04-03T13:50:26.316Z,99743.81
2023-04-03T13:53:04.588Z,99742.44
2023-04-03T13:55:34.553Z,99743.63
2023-04-03T13:58:08.601Z,99745.88
2023-04-03T14:00:51.521Z,99744.47
2023-04-03T14:03:29.532Z,99747.56
2023-04-03T14:05:57.192Z,99751.19
2023-04-03T14:08:36.096Z,99747.34
2023-04-03T14:11:21.816Z,99748.06
2023-04-03T14:13:49.528Z,99749.19
2023-04-03T14:16:19.179Z,99765.94
2023-04-03T14:18:47.274Z,99756.53
2023-04-03T14:21:16.105Z,99754.84
2023-04-03T14:23:43.518Z,99759.72
2023-04-03T14:26:17.453Z,99762.69
2023-04-03T14:28:46.171Z,99751.69
2023-04-03T14:31:14.032Z,99770.75
2023-04-03T14:33:41.634Z,99764.44
2023-04-03T14:36:16.998Z,99754.19
2023-04-03T14:38:44.758Z,99748.53
2023-04-03T14:41:17.157Z,99755.53
2023-04-03T14:43:45.443Z,99753.88
2023-04-03T14:46:18.708Z,99768.09
2023-04-03T14:48:46.134Z,99770.47
2023-04-03T14:51:14.120Z,99767.13
2023-04-03T14:53:42.960Z,99775.41
2023-04-03T14:56:18.605Z,99779.44
2023-04-03T14:58:50.275Z,99784.09
2023-04-03T15:01:18.506Z,99778.75
2023-04-03T15:03:46.273Z,99770.47
2023-04-03T15:06:14.272Z,99776.44
2023-04-03T15:08:43.077Z,99773.31
2023-04-03T15:11:11.278Z,99766.16
2023-04-03T15:13:39.172Z,99780.09
2023-04-03T15:16:07.306Z,99791.38
2023-04-03T15:18:38.621Z,99778.72
2023-04-03T15:21:06.337Z,99787.72
2023-04-03T15:23:33.704Z,99773.78
2023-04-03T15:26:01.338Z,99775.09
2023-04-03T15:28:33.815Z,99777.12
2023-04-03T15:31:01.433Z,99779.75
2023-04-03T15:33:28.969Z,99779.91
2023-04-03T15:36:06.466Z,99775.44
2023-04-03T15:38:35.758Z,99786.72
2023-04-03T15:41:03.137Z,99789.16
2023-04-03T15:43:30.671Z,99795.00
2023-04-03T15:45:58.535Z,99787.53
2023-04-03T15:48:26.142Z,99791.59
2023-04-03T15:50:53.464Z,99790.94
2023-04-03T15:53:21.102Z,99791.88
2023-04-03T15:55:48.498Z,99799.38
2023-04-03T15:58:15.928Z,99794.25
2023-04-03T16:00:43.538Z,99787.94
2023-04-03T16:03:13.596Z,99781.44
2023-04-03T16:05:41.205Z,99784.34
2023-04-03T16:08:08.850Z,99792.03
2023-04-03T16:10:37.280Z,99789.81
2023-04-03T16:13:04.990Z,99779.06
2023-04-03T16:15:32.592Z,99781.34
2023-04-03T16:18:00.362Z,99782.00
2023-04-03T16:20:27.725Z,99778.88
2023-04-03T16:22:55.123Z,99785.78
2023-04-03T16:25:22.730Z,99779.91
2023-04-03T16:27:50.098Z,99782.84
2023-04-03T16:30:17.543Z,99778.75
2023-04-03T16:32:45.374Z,99783.81
2023-04-03T16:35:12.831Z,99790.28
2023-04-03T16:37:40.581Z,99786.13
2023-04-03T16:40:08.735Z,99793.59
2023-04-03T16:42:37.366Z,99803.94
2023-04-03T16:45:06.947Z,99802.84
2023-04-03T16:47:34.621Z,99800.09
2023-04-03T16:50:02.197Z,99804.97
2023-04-03T16:52:29.649Z,99797.94
2023-04-03T16:54:59.300Z,99796.56
2023-04-03T16:57:26.818Z,99804.19
2023-04-03T16:59:55.206Z,99810.06
2023-04-03T17:02:25.426Z,99811.25
2023-04-03T17:04:53.758Z,99812.81
2023-04-03T17:07:21.590Z,99816.69
2023-04-03T17:09:49.239Z,99823.09
2023-04-03T17:12:17.005Z,99824.09
2023-04-03T17:14:44.402Z,99838.66
2023-04-03T17:17:12.031Z,99841.72
2023-04-03T17:19:39.403Z,99845.28
2023-04-03T17:22:07.661Z,99852.00
2023-04-03T17:24:35.413Z,99852.56
2023-04-03T17:27:03.092Z,99858.28
2023-04-03T17:29:30.438Z,99864.53
2023-04-03T17:31:58.097Z,99872.56
2023-04-03T17:34:25.418Z,99880.28
2023-04-03T17:36:52.885Z,99892.94
2023-04-03T17:39:20.789Z,99893.72
2023-04-03T17:41:49.598Z,99905.22
2023-04-03T17:44:16.968Z,99917.41
2023-04-03T17:46:44.778Z,99918.75
2023-04-03T17:49:15.039Z,99919.75
2023-04-03T17:51:42.598Z,99914.88
2023-04-03T17:54:10.235Z,99915.06
2023-04-03T17:56:37.570Z,99941.50
2023-04-03T17:59:05.006Z,99941.84
2023-04-03T18:01:33.952Z,99947.19
2023-04-03T18:04:03.160Z,99955.97
2023-04-03T18:06:36.909Z,99979.50
2023-04-03T18:09:09.959Z,99974.94
2023-04-03T18:11:37.311Z,99985.91
2023-04-03T18:14:05.299Z,99998.16
2023-04-03T18:16:32.784Z,99998.94
2023-04-03T18:19:17.612Z,100003.16
2023-04-03T18:21:47.931Z,100011.91
2023-04-03T18:24:17.026Z,99991.09
2023-04-03T18:26:46.534Z,100014.16
2023-04-03T18:29:14.173Z,100009.50
2023-04-03T18:31:42.113Z,100012.12
2023-04-03T18:34:09.476Z,100022.69
2023-04-03T18:36:37.091Z,100032.41
2023-04-03T18:39:04.462Z,100028.97
2023-04-03T18:41:32.628Z,100033.91
2023-04-03T18:44:01.502Z,100032.78
2023-04-03T18:46:28.881Z,100033.97
2023-04-03T18:48:56.237Z,100036.94
2023-04-03T18:51:23.828Z,100044.09
2023-04-03T18:53:51.221Z,100040.91
2023-04-03T18:56:18.597Z,100038.25
2023-04-03T18:58:46.220Z,100034.72
2023-04-03T19:01:14.227Z,100033.28
2023-04-03T19:03:41.786Z,100039.25
2023-04-03T19:06:09.453Z,100039.22
2023-04-03T19:08:36.874Z,100047.97
2023-04-03T19:11:04.359Z,100050.09
2023-04-03T19:13:32.660Z,100043.31
2023-04-03T19:16:00.168Z,100039.91
2023-04-03T19:18:27.613Z,100047.66
2023-04-03T19:20:56.338Z,100050.78
2023-04-03T19:23:24.110Z,100049.44
2023-04-03T19:26:01.886Z,100044.16
2023-04-03T19:28:29.596Z,100044.03
2023-04-03T19:30:58.242Z,100046.63
2023-04-03T19:33:25.699Z,100050.56
2023-04-03T19:35:53.341Z,100048.06
2023-04-03T19:38:20.733Z,100066.81
2023-04-03T19:40:48.082Z,100061.97
2023-04-03T19:43:16.258Z,100052.78
2023-04-03T19:45:44.265Z,100050.00
2023-04-03T19:48:11.830Z,100050.56
2023-04-03T19:50:39.575Z,100054.88
2023-04-03T19:53:08.677Z,100052.84
2023-04-03T19:55:36.488Z,100047.63
2023-04-03T19:58:04.286Z,100042.78
2023-04-03T20:00:31.745Z,100042.22
2023-04-03T20:02:59.485Z,100043.06
2023-04-03T20:05:26.910Z,100050.81
2023-04-03T20:07:54.269Z,100046.38
2023-04-03T20:10:21.852Z,100042.94
2023-04-03T20:12:50.321Z,100046.12
2023-04-03T20:15:17.917Z,100054.28
2023-04-03T20:17:45.626Z,100049.88
2023-04-03T20:20:13.641Z,100051.94
2023-04-03T20:22:41.097Z,100058.88
2023-04-03T20:25:10.610Z,100039.97
2023-04-03T20:27:39.584Z,100045.25
2023-04-03T20:30:08.903Z,100047.63
2023-04-03T20:32:36.530Z,100047.19
2023-04-03T20:35:04.893Z,100044.28
2023-04-03T20:37:32.620Z,100048.34
2023-04-03T20:40:00.498Z,100063.06
2023-04-03T20:42:27.909Z,100051.81
2023-04-03T20:44:57.260Z,100040.69
2023-04-03T20:47:25.112Z,100054.59
2023-04-03T20:49:53.709Z,100055.16
2023-04-03T20:52:21.379Z,100050.69
2023-04-03T20:54:49.003Z,100055.50
2023-04-03T20:57:16.348Z,100057.69
2023-04-03T20:59:43.782Z,100063.06
2023-04-03T21:02:12.636Z,100054.69
2023-04-03T21:04:46.566Z,100054.91
2023-04-03T21:07:52.293Z,100059.66
2023-04-03T21:10:57.169Z,100062.19
2023-04-03T21:14:02.567Z,100056.38
2023-04-03T21:16:30.352Z,100056.03
2023-04-03T21:19:15.865Z,100054.56
2023-04-03T21:21:45.873Z,100055.78
2023-04-03T21:24:13.987Z,100063.44
2023-04-03T21:26:41.699Z,100049.00
2023-04-03T21:29:09.039Z,100045.53
2023-04-03T21:31:59.605Z,100050.63
2023-04-03T21:34:28.554Z,100049.44
2023-04-03T21:37:06.320Z,100052.16
2023-04-03T21:39:33.770Z,100046.75
2023-04-03T21:42:01.873Z,100040.37
2023-04-03T21:44:29.544Z,100037.72
2023-04-03T21:46:56.918Z,100037.91
2023-04-03T21:49:24.913Z,100038.88
2023-04-03T21:51:52.600Z,100030.25
2023-04-03T21:54:20.498Z,100028.28
2023-04-03T21:56:49.414Z,100028.62
2023-04-03T21:59:16.945Z,100031.41
2023-04-03T22:01:44.395Z,100030.16
2023-04-03T22:04:12.559Z,100032.66
2023-04-03T22:06:39.986Z,100029.72
2023-04-03T22:09:08.022Z,100018.50
2023-04-03T22:11:38.112Z,100024.34
2023-04-03T22:14:05.430Z,100034.72
2023-04-03T22:16:32.847Z,100022.63
2023-04-03T22:19:01.416Z,100027.53
2023-04-03T22:21:28.828Z,100015.03
2023-04-03T22:23:56.170Z,100013.37
2023-04-03T22:26:23.777Z,100021.19
2023-04-03T22:28:51.176Z,100028.22
2023-04-03T22:31:19.266Z,100024.78
2023-04-03T22:33:46.938Z,100031.31
2023-04-03T22:36:14.362Z,100016.91
2023-04-03T22:38:44.935Z,100028.59
2023-04-03T22:41:12.632Z,100020.37
2023-04-03T22:43:40.274Z,100026.38
2023-04-03T22:46:11.273Z,100027.44
2023-04-03T22:48:42.297Z,100037.47
2023-04-03T22:51:09.855Z,100046.03
2023-04-03T22:53:37.371Z,100044.16
2023-04-03T22:56:08.575Z,100043.84
2023-04-03T22:58:35.999Z,100036.31
2023-04-03T23:01:08.938Z,100040.69
2023-04-03T23:03:37.020Z,100040.44
2023-04-03T23:06:04.995Z,100045.34
2023-04-03T23:08:34.483Z,100049.59
2023-04-03T23:11:02.487Z,100031.34
2023-04-03T23:13:29.985Z,100035.53
2023-04-03T23:15:58.656Z,100037.50
2023-04-03T23:18:26.900Z,100027.81
2023-04-03T23:20:55.071Z,100030.81
2023-04-03T23:23:23.563Z,100026.97
2023-04-03T23:25:54.841Z,100034.25
2023-04-03T23:28:22.868Z,100033.03
2023-04-03T23:30:52.686Z,100028.28
2023-04-03T23:33:20.373Z,100023.59
2023-04-03T23:35:52.101Z,100019.53
2023-04-03T23:38:19.746Z,100015.25
2023-04-03T23:40:47.264Z,100019.06
2023-04-03T23:43:14.643Z,100021.03
2023-04-03T23:45:42.473Z,100024.81
2023-04-03T23:48:09.981Z,100029.84
2023-04-03T23:50:37.512Z,100024.13
2023-04-03T23:53:05.443Z,100024.38
2023-04-03T23:55:33.096Z,100028.62
2023-04-03T23:58:00.545Z,100015.59
